Terminal Aerodrome Forecast
Issued by NWS Atlanta, GA

Home | Current Version | Previous Version | Text Only | Print | Product List | Glossary On
Versions: 1 2 3 4 5 6 7 8 9 10 11 12 13 14 15 16 17 18 19 20 21 22 23 24 25 26 27 28 29
473
FTUS42 KFFC 261415 AAC
TAFCSG
TAF AMD
KCSG 261415Z 2614/2712 VRB03KT P6SM SCT005 SCT010
     FM261500 VRB03KT P6SM SCT015 SCT025
     FM261800 18006KT P6SM VCSH SCT025 SCT040 BKN120
      TEMPO 2618/2622 VRB15G25KT 3SM TSRA BKN025CB
     FM270300 VRB03KT P6SM SCT040 BKN200
     FM271000 09005KT P6SM SCT005 BKN040 OVC180=

USA.gov is the U.S. government's official web portal to all federal, state and local government web resources and services.